sensor_id;sensor_type;location;lat;lon;timestamp;P1;durP1;ratioP1;P2;durP2;ratioP2
35056;SDS011;21241;51.828;19.574;2023-04-03T00:01:06;4.10;;;3.60;;
35056;SDS011;21241;51.828;19.574;2023-04-03T00:03:34;5.40;;;3.50;;
35056;SDS011;21241;51.828;19.574;2023-04-03T00:06:03;3.60;;;3.30;;
35056;SDS011;21241;51.828;19.574;2023-04-03T00:08:34;4.20;;;3.10;;
35056;SDS011;21241;51.828;19.574;2023-04-03T00:11:03;3.90;;;3.20;;
35056;SDS011;21241;51.828;19.574;2023-04-03T00:13:31;3.70;;;3.20;;
35056;SDS011;21241;51.828;19.574;2023-04-03T00:16:00;3.50;;;3.10;;
35056;SDS011;21241;51.828;19.574;2023-04-03T00:18:27;3.80;;;3.20;;
35056;SDS011;21241;51.828;19.574;2023-04-03T00:20:55;4.40;;;3.50;;
35056;SDS011;21241;51.828;19.574;2023-04-03T00:23:23;4.60;;;3.40;;
35056;SDS011;21241;51.828;19.574;2023-04-03T00:25:51;4.20;;;3.30;;
35056;SDS011;21241;51.828;19.574;2023-04-03T00:28:19;5.70;;;3.70;;
35056;SDS011;21241;51.828;19.574;2023-04-03T00:30:48;4.20;;;3.70;;
35056;SDS011;21241;51.828;19.574;2023-04-03T00:33:16;3.80;;;3.40;;
35056;SDS011;21241;51.828;19.574;2023-04-03T00:35:44;4.50;;;3.40;;
35056;SDS011;21241;51.828;19.574;2023-04-03T00:38:12;4.20;;;3.80;;
35056;SDS011;21241;51.828;19.574;2023-04-03T00:40:42;3.80;;;3.50;;
35056;SDS011;21241;51.828;19.574;2023-04-03T00:43:15;5.20;;;4.20;;
35056;SDS011;21241;51.828;19.574;2023-04-03T00:45:49;4.70;;;3.90;;
35056;SDS011;21241;51.828;19.574;2023-04-03T00:51:10;4.60;;;3.70;;
35056;SDS011;21241;51.828;19.574;2023-04-03T00:54:03;4.60;;;3.90;;
35056;SDS011;21241;51.828;19.574;2023-04-03T00:56:30;4.80;;;3.60;;
35056;SDS011;21241;51.828;19.574;2023-04-03T01:01:28;3.70;;;3.30;;
35056;SDS011;21241;51.828;19.574;2023-04-03T01:04:00;4.20;;;3.60;;
35056;SDS011;21241;51.828;19.574;2023-04-03T01:06:32;4.10;;;3.50;;
35056;SDS011;21241;51.828;19.574;2023-04-03T01:09:08;5.00;;;3.80;;
35056;SDS011;21241;51.828;19.574;2023-04-03T01:11:36;6.00;;;3.70;;
35056;SDS011;21241;51.828;19.574;2023-04-03T01:14:03;3.70;;;3.40;;
35056;SDS011;21241;51.828;19.574;2023-04-03T01:16:33;4.90;;;3.80;;
35056;SDS011;21241;51.828;19.574;2023-04-03T01:19:01;3.80;;;3.40;;
35056;SDS011;21241;51.828;19.574;2023-04-03T01:24:21;4.10;;;3.50;;
35056;SDS011;21241;51.828;19.574;2023-04-03T01:27:05;5.50;;;4.30;;
35056;SDS011;21241;51.828;19.574;2023-04-03T01:29:34;5.60;;;3.80;;
35056;SDS011;21241;51.828;19.574;2023-04-03T01:32:03;4.40;;;4.00;;
35056;SDS011;21241;51.828;19.574;2023-04-03T01:34:31;3.90;;;3.60;;
35056;SDS011;21241;51.828;19.574;2023-04-03T01:36:59;4.20;;;3.80;;
35056;SDS011;21241;51.828;19.574;2023-04-03T01:39:27;4.50;;;4.10;;
35056;SDS011;21241;51.828;19.574;2023-04-03T01:41:55;4.70;;;3.70;;
35056;SDS011;21241;51.828;19.574;2023-04-03T01:44:30;4.90;;;3.80;;
35056;SDS011;21241;51.828;19.574;2023-04-03T01:46:57;3.90;;;3.50;;
35056;SDS011;21241;51.828;19.574;2023-04-03T01:49:26;4.50;;;4.10;;
35056;SDS011;21241;51.828;19.574;2023-04-03T01:51:55;4.90;;;4.40;;
35056;SDS011;21241;51.828;19.574;2023-04-03T01:54:23;4.60;;;4.10;;
35056;SDS011;21241;51.828;19.574;2023-04-03T01:56:51;5.30;;;4.00;;
35056;SDS011;21241;51.828;19.574;2023-04-03T01:59:20;5.10;;;4.40;;
35056;SDS011;21241;51.828;19.574;2023-04-03T02:01:48;4.70;;;3.50;;
35056;SDS011;21241;51.828;19.574;2023-04-03T02:04:15;4.80;;;4.30;;
35056;SDS011;21241;51.828;19.574;2023-04-03T02:06:43;4.10;;;3.50;;
35056;SDS011;21241;51.828;19.574;2023-04-03T02:09:11;4.40;;;4.00;;
35056;SDS011;21241;51.828;19.574;2023-04-03T02:11:38;4.60;;;4.20;;
35056;SDS011;21241;51.828;19.574;2023-04-03T02:14:07;4.30;;;3.90;;
35056;SDS011;21241;51.828;19.574;2023-04-03T02:16:36;4.20;;;3.70;;
35056;SDS011;21241;51.828;19.574;2023-04-03T02:19:04;4.10;;;3.60;;
35056;SDS011;21241;51.828;19.574;2023-04-03T02:21:32;4.30;;;3.90;;
35056;SDS011;21241;51.828;19.574;2023-04-03T02:23:59;4.10;;;3.60;;
35056;SDS011;21241;51.828;19.574;2023-04-03T02:26:27;4.60;;;4.20;;
35056;SDS011;21241;51.828;19.574;2023-04-03T02:28:55;5.00;;;4.20;;
35056;SDS011;21241;51.828;19.574;2023-04-03T02:31:22;4.10;;;3.70;;
35056;SDS011;21241;51.828;19.574;2023-04-03T02:33:51;4.50;;;4.00;;
35056;SDS011;21241;51.828;19.574;2023-04-03T02:36:19;4.40;;;3.90;;
35056;SDS011;21241;51.828;19.574;2023-04-03T02:38:51;5.00;;;3.90;;
35056;SDS011;21241;51.828;19.574;2023-04-03T02:41:19;5.30;;;3.80;;
35056;SDS011;21241;51.828;19.574;2023-04-03T02:43:48;4.50;;;3.70;;
35056;SDS011;21241;51.828;19.574;2023-04-03T02:46:16;4.20;;;3.70;;
35056;SDS011;21241;51.828;19.574;2023-04-03T02:48:44;4.00;;;3.70;;
35056;SDS011;21241;51.828;19.574;2023-04-03T02:51:12;4.40;;;3.20;;
35056;SDS011;21241;51.828;19.574;2023-04-03T02:53:39;4.10;;;3.10;;
35056;SDS011;21241;51.828;19.574;2023-04-03T02:56:11;2.70;;;2.50;;
35056;SDS011;21241;51.828;19.574;2023-04-03T02:58:39;2.90;;;2.50;;
35056;SDS011;21241;51.828;19.574;2023-04-03T03:01:07;3.90;;;2.70;;
35056;SDS011;21241;51.828;19.574;2023-04-03T03:03:35;3.20;;;2.80;;
35056;SDS011;21241;51.828;19.574;2023-04-03T03:06:03;2.90;;;2.60;;
35056;SDS011;21241;51.828;19.574;2023-04-03T03:08:33;2.80;;;2.20;;
35056;SDS011;21241;51.828;19.574;2023-04-03T03:11:02;3.10;;;2.50;;
35056;SDS011;21241;51.828;19.574;2023-04-03T03:13:30;3.60;;;2.40;;
35056;SDS011;21241;51.828;19.574;2023-04-03T03:15:58;3.50;;;2.60;;
35056;SDS011;21241;51.828;19.574;2023-04-03T03:18:27;2.80;;;2.10;;
35056;SDS011;21241;51.828;19.574;2023-04-03T03:20:55;3.50;;;2.70;;
35056;SDS011;21241;51.828;19.574;2023-04-03T03:23:25;3.10;;;2.70;;
35056;SDS011;21241;51.828;19.574;2023-04-03T03:25:58;2.90;;;2.20;;
35056;SDS011;21241;51.828;19.574;2023-04-03T03:28:30;4.30;;;2.60;;
35056;SDS011;21241;51.828;19.574;2023-04-03T03:30:58;3.80;;;2.80;;
35056;SDS011;21241;51.828;19.574;2023-04-03T03:33:28;3.70;;;2.60;;
35056;SDS011;21241;51.828;19.574;2023-04-03T03:35:55;3.00;;;2.50;;
35056;SDS011;21241;51.828;19.574;2023-04-03T03:38:23;4.70;;;3.30;;
35056;SDS011;21241;51.828;19.574;2023-04-03T03:40:51;3.80;;;2.80;;
35056;SDS011;21241;51.828;19.574;2023-04-03T03:43:20;2.90;;;2.60;;
35056;SDS011;21241;51.828;19.574;2023-04-03T03:45:49;3.70;;;2.80;;
35056;SDS011;21241;51.828;19.574;2023-04-03T03:48:19;2.90;;;2.60;;
35056;SDS011;21241;51.828;19.574;2023-04-03T03:50:48;4.20;;;2.90;;
35056;SDS011;21241;51.828;19.574;2023-04-03T03:53:17;4.30;;;2.80;;
35056;SDS011;21241;51.828;19.574;2023-04-03T03:55:45;3.60;;;2.40;;
35056;SDS011;21241;51.828;19.574;2023-04-03T03:58:13;3.10;;;2.70;;
35056;SDS011;21241;51.828;19.574;2023-04-03T04:00:42;3.40;;;2.70;;
35056;SDS011;21241;51.828;19.574;2023-04-03T04:03:10;3.80;;;2.80;;
35056;SDS011;21241;51.828;19.574;2023-04-03T04:05:39;4.40;;;2.70;;
35056;SDS011;21241;51.828;19.574;2023-04-03T04:08:07;3.10;;;2.80;;
35056;SDS011;21241;51.828;19.574;2023-04-03T04:10:35;3.90;;;2.60;;
35056;SDS011;21241;51.828;19.574;2023-04-03T04:13:03;3.00;;;2.70;;
35056;SDS011;21241;51.828;19.574;2023-04-03T04:15:31;2.60;;;2.40;;
35056;SDS011;21241;51.828;19.574;2023-04-03T04:17:59;3.30;;;2.50;;
35056;SDS011;21241;51.828;19.574;2023-04-03T04:20:27;3.20;;;2.40;;
35056;SDS011;21241;51.828;19.574;2023-04-03T04:22:55;3.50;;;2.80;;
35056;SDS011;21241;51.828;19.574;2023-04-03T04:25:23;3.00;;;2.70;;
35056;SDS011;21241;51.828;19.574;2023-04-03T04:27:51;3.80;;;3.10;;
35056;SDS011;21241;51.828;19.574;2023-04-03T04:30:19;3.50;;;3.10;;
35056;SDS011;21241;51.828;19.574;2023-04-03T04:32:47;3.50;;;2.80;;
35056;SDS011;21241;51.828;19.574;2023-04-03T04:35:15;3.80;;;2.80;;
35056;SDS011;21241;51.828;19.574;2023-04-03T04:37:45;3.00;;;2.70;;
35056;SDS011;21241;51.828;19.574;2023-04-03T04:40:13;3.50;;;2.50;;
35056;SDS011;21241;51.828;19.574;2023-04-03T04:42:42;3.50;;;2.70;;
35056;SDS011;21241;51.828;19.574;2023-04-03T04:45:10;4.20;;;2.70;;
35056;SDS011;21241;51.828;19.574;2023-04-03T04:47:38;3.80;;;3.10;;
35056;SDS011;21241;51.828;19.574;2023-04-03T04:50:06;3.60;;;2.80;;
35056;SDS011;21241;51.828;19.574;2023-04-03T04:52:34;3.10;;;2.80;;
35056;SDS011;21241;51.828;19.574;2023-04-03T04:55:02;3.40;;;2.80;;
35056;SDS011;21241;51.828;19.574;2023-04-03T04:57:31;3.50;;;3.10;;
35056;SDS011;21241;51.828;19.574;2023-04-03T04:59:59;3.00;;;2.70;;
35056;SDS011;21241;51.828;19.574;2023-04-03T05:02:27;4.40;;;3.90;;
35056;SDS011;21241;51.828;19.574;2023-04-03T05:04:56;4.60;;;3.60;;
35056;SDS011;21241;51.828;19.574;2023-04-03T05:07:27;5.40;;;3.60;;
35056;SDS011;21241;51.828;19.574;2023-04-03T05:09:54;4.60;;;3.70;;
35056;SDS011;21241;51.828;19.574;2023-04-03T05:12:23;5.60;;;3.40;;
35056;SDS011;21241;51.828;19.574;2023-04-03T05:14:55;4.40;;;3.10;;
35056;SDS011;21241;51.828;19.574;2023-04-03T05:17:23;4.70;;;4.00;;
35056;SDS011;21241;51.828;19.574;2023-04-03T05:19:53;5.90;;;4.30;;
35056;SDS011;21241;51.828;19.574;2023-04-03T05:22:22;4.30;;;3.60;;
35056;SDS011;21241;51.828;19.574;2023-04-03T05:24:51;4.60;;;4.00;;
35056;SDS011;21241;51.828;19.574;2023-04-03T05:27:19;3.60;;;3.30;;
35056;SDS011;21241;51.828;19.574;2023-04-03T05:29:52;4.70;;;3.70;;
35056;SDS011;21241;51.828;19.574;2023-04-03T05:32:22;5.00;;;3.50;;
35056;SDS011;21241;51.828;19.574;2023-04-03T05:34:55;4.20;;;3.70;;
35056;SDS011;21241;51.828;19.574;2023-04-03T05:37:25;4.70;;;3.60;;
35056;SDS011;21241;51.828;19.574;2023-04-03T05:39:53;5.30;;;3.90;;
35056;SDS011;21241;51.828;19.574;2023-04-03T05:42:22;4.60;;;3.50;;
35056;SDS011;21241;51.828;19.574;2023-04-03T05:44:50;4.90;;;3.60;;
35056;SDS011;21241;51.828;19.574;2023-04-03T05:47:18;5.50;;;3.70;;
35056;SDS011;21241;51.828;19.574;2023-04-03T05:49:46;4.90;;;3.70;;
35056;SDS011;21241;51.828;19.574;2023-04-03T05:55:04;4.80;;;3.60;;
35056;SDS011;21241;51.828;19.574;2023-04-03T05:57:55;5.50;;;3.80;;
35056;SDS011;21241;51.828;19.574;2023-04-03T06:00:24;3.40;;;3.10;;
35056;SDS011;21241;51.828;19.574;2023-04-03T06:02:58;6.70;;;3.80;;
35056;SDS011;21241;51.828;19.574;2023-04-03T06:05:28;4.50;;;3.60;;
35056;SDS011;21241;51.828;19.574;2023-04-03T06:07:56;3.60;;;3.20;;
35056;SDS011;21241;51.828;19.574;2023-04-03T06:10:24;5.40;;;3.90;;
35056;SDS011;21241;51.828;19.574;2023-04-03T06:12:52;4.00;;;3.40;;
35056;SDS011;21241;51.828;19.574;2023-04-03T06:15:20;5.10;;;3.70;;
35056;SDS011;21241;51.828;19.574;2023-04-03T06:17:48;5.10;;;3.60;;
35056;SDS011;21241;51.828;19.574;2023-04-03T06:20:16;4.90;;;3.70;;
35056;SDS011;21241;51.828;19.574;2023-04-03T06:22:44;5.30;;;3.90;;
35056;SDS011;21241;51.828;19.574;2023-04-03T06:25:12;3.50;;;3.20;;
35056;SDS011;21241;51.828;19.574;2023-04-03T06:27:40;4.10;;;3.30;;
35056;SDS011;21241;51.828;19.574;2023-04-03T06:30:08;3.90;;;3.50;;
35056;SDS011;21241;51.828;19.574;2023-04-03T06:32:36;4.30;;;3.70;;
35056;SDS011;21241;51.828;19.574;2023-04-03T06:35:04;5.50;;;3.60;;
35056;SDS011;21241;51.828;19.574;2023-04-03T06:37:33;3.70;;;3.40;;
35056;SDS011;21241;51.828;19.574;2023-04-03T06:40:01;4.20;;;3.50;;
35056;SDS011;21241;51.828;19.574;2023-04-03T06:42:30;3.60;;;3.30;;
35056;SDS011;21241;51.828;19.574;2023-04-03T06:45:07;4.20;;;3.30;;
35056;SDS011;21241;51.828;19.574;2023-04-03T06:47:35;4.00;;;3.60;;
35056;SDS011;21241;51.828;19.574;2023-04-03T06:50:03;4.40;;;3.70;;
35056;SDS011;21241;51.828;19.574;2023-04-03T06:52:31;3.90;;;3.50;;
35056;SDS011;21241;51.828;19.574;2023-04-03T06:54:58;5.20;;;3.90;;
35056;SDS011;21241;51.828;19.574;2023-04-03T06:57:27;4.20;;;3.80;;
35056;SDS011;21241;51.828;19.574;2023-04-03T06:59:54;4.20;;;3.80;;
35056;SDS011;21241;51.828;19.574;2023-04-03T07:02:23;4.60;;;3.80;;
35056;SDS011;21241;51.828;19.574;2023-04-03T07:04:50;4.70;;;4.20;;
35056;SDS011;21241;51.828;19.574;2023-04-03T07:07:18;4.70;;;4.30;;
35056;SDS011;21241;51.828;19.574;2023-04-03T07:09:46;5.00;;;3.90;;
35056;SDS011;21241;51.828;19.574;2023-04-03T07:12:15;4.90;;;3.90;;
35056;SDS011;21241;51.828;19.574;2023-04-03T07:14:43;3.90;;;3.50;;
35056;SDS011;21241;51.828;19.574;2023-04-03T07:17:11;3.20;;;2.90;;
35056;SDS011;21241;51.828;19.574;2023-04-03T07:19:38;4.00;;;2.70;;
35056;SDS011;21241;51.828;19.574;2023-04-03T07:22:06;3.70;;;2.50;;
35056;SDS011;21241;51.828;19.574;2023-04-03T07:24:35;3.50;;;2.80;;
35056;SDS011;21241;51.828;19.574;2023-04-03T07:27:03;5.80;;;3.60;;
35056;SDS011;21241;51.828;19.574;2023-04-03T07:29:31;4.10;;;3.20;;
35056;SDS011;21241;51.828;19.574;2023-04-03T07:31:58;3.10;;;2.60;;
35056;SDS011;21241;51.828;19.574;2023-04-03T07:34:26;3.40;;;3.10;;
35056;SDS011;21241;51.828;19.574;2023-04-03T07:36:54;3.60;;;2.90;;
35056;SDS011;21241;51.828;19.574;2023-04-03T07:39:22;4.00;;;2.50;;
35056;SDS011;21241;51.828;19.574;2023-04-03T07:41:50;3.70;;;2.50;;
35056;SDS011;21241;51.828;19.574;2023-04-03T07:44:17;3.10;;;2.30;;
35056;SDS011;21241;51.828;19.574;2023-04-03T07:46:45;3.00;;;2.50;;
35056;SDS011;21241;51.828;19.574;2023-04-03T07:49:14;3.10;;;2.20;;
35056;SDS011;21241;51.828;19.574;2023-04-03T07:51:42;2.80;;;2.40;;
35056;SDS011;21241;51.828;19.574;2023-04-03T07:54:09;2.20;;;1.90;;
35056;SDS011;21241;51.828;19.574;2023-04-03T07:56:37;3.30;;;2.70;;
35056;SDS011;21241;51.828;19.574;2023-04-03T07:59:05;3.70;;;2.80;;
35056;SDS011;21241;51.828;19.574;2023-04-03T08:01:33;3.50;;;2.70;;
35056;SDS011;21241;51.828;19.574;2023-04-03T08:04:01;3.70;;;2.30;;
35056;SDS011;21241;51.828;19.574;2023-04-03T08:06:30;3.10;;;2.50;;
35056;SDS011;21241;51.828;19.574;2023-04-03T08:09:13;3.20;;;2.50;;
35056;SDS011;21241;51.828;19.574;2023-04-03T08:11:42;2.40;;;2.20;;
35056;SDS011;21241;51.828;19.574;2023-04-03T08:14:11;3.10;;;2.50;;
35056;SDS011;21241;51.828;19.574;2023-04-03T08:16:44;2.80;;;2.20;;
35056;SDS011;21241;51.828;19.574;2023-04-03T08:19:14;2.20;;;2.00;;
35056;SDS011;21241;51.828;19.574;2023-04-03T08:21:53;3.10;;;2.60;;
35056;SDS011;21241;51.828;19.574;2023-04-03T08:24:22;2.70;;;2.50;;
35056;SDS011;21241;51.828;19.574;2023-04-03T08:26:49;11.20;;;2.50;;
35056;SDS011;21241;51.828;19.574;2023-04-03T08:29:17;2.80;;;2.50;;
35056;SDS011;21241;51.828;19.574;2023-04-03T08:31:45;3.80;;;3.10;;
35056;SDS011;21241;51.828;19.574;2023-04-03T08:34:13;3.90;;;2.70;;
35056;SDS011;21241;51.828;19.574;2023-04-03T08:36:42;2.90;;;2.50;;
35056;SDS011;21241;51.828;19.574;2023-04-03T08:39:10;3.10;;;2.60;;
35056;SDS011;21241;51.828;19.574;2023-04-03T08:41:40;2.70;;;2.40;;
35056;SDS011;21241;51.828;19.574;2023-04-03T08:44:14;3.10;;;2.60;;
35056;SDS011;21241;51.828;19.574;2023-04-03T08:49:29;3.80;;;3.00;;
35056;SDS011;21241;51.828;19.574;2023-04-03T08:52:10;3.70;;;2.40;;
35056;SDS011;21241;51.828;19.574;2023-04-03T08:54:48;3.50;;;2.40;;
35056;SDS011;21241;51.828;19.574;2023-04-03T08:57:35;3.00;;;2.20;;
35056;SDS011;21241;51.828;19.574;2023-04-03T09:00:11;2.90;;;2.10;;
35056;SDS011;21241;51.828;19.574;2023-04-03T09:02:45;2.50;;;2.10;;
35056;SDS011;21241;51.828;19.574;2023-04-03T09:05:16;3.00;;;2.10;;
35056;SDS011;21241;51.828;19.574;2023-04-03T09:10:28;2.90;;;2.00;;
35056;SDS011;21241;51.828;19.574;2023-04-03T09:12:59;2.50;;;2.00;;
35056;SDS011;21241;51.828;19.574;2023-04-03T09:15:30;3.00;;;2.10;;
35056;SDS011;21241;51.828;19.574;2023-04-03T09:18:13;3.10;;;2.30;;
35056;SDS011;21241;51.828;19.574;2023-04-03T09:20:46;4.20;;;2.50;;
35056;SDS011;21241;51.828;19.574;2023-04-03T09:26:09;3.80;;;2.30;;
35056;SDS011;21241;51.828;19.574;2023-04-03T09:28:42;2.10;;;1.90;;
35056;SDS011;21241;51.828;19.574;2023-04-03T09:31:21;2.30;;;2.00;;
35056;SDS011;21241;51.828;19.574;2023-04-03T09:33:53;3.10;;;2.70;;
35056;SDS011;21241;51.828;19.574;2023-04-03T09:36:42;2.80;;;2.30;;
35056;SDS011;21241;51.828;19.574;2023-04-03T09:39:18;2.30;;;2.10;;
35056;SDS011;21241;51.828;19.574;2023-04-03T09:41:58;2.20;;;1.80;;
35056;SDS011;21241;51.828;19.574;2023-04-03T09:44:37;4.00;;;2.40;;
35056;SDS011;21241;51.828;19.574;2023-04-03T09:47:21;3.60;;;2.40;;
35056;SDS011;21241;51.828;19.574;2023-04-03T09:50:10;2.70;;;2.20;;
35056;SDS011;21241;51.828;19.574;2023-04-03T09:52:48;3.30;;;2.20;;
35056;SDS011;21241;51.828;19.574;2023-04-03T09:55:18;2.70;;;2.20;;
35056;SDS011;21241;51.828;19.574;2023-04-03T09:57:49;3.10;;;2.80;;
35056;SDS011;21241;51.828;19.574;2023-04-03T10:00:23;2.70;;;2.40;;
35056;SDS011;21241;51.828;19.574;2023-04-03T10:02:56;2.90;;;2.20;;
35056;SDS011;21241;51.828;19.574;2023-04-03T10:10:41;2.20;;;1.90;;
35056;SDS011;21241;51.828;19.574;2023-04-03T10:13:12;3.00;;;1.90;;
35056;SDS011;21241;51.828;19.574;2023-04-03T10:15:50;2.50;;;2.30;;
35056;SDS011;21241;51.828;19.574;2023-04-03T10:18:27;2.50;;;2.30;;
35056;SDS011;21241;51.828;19.574;2023-04-03T10:20:58;2.30;;;2.00;;
35056;SDS011;21241;51.828;19.574;2023-04-03T10:23:51;2.70;;;2.10;;
35056;SDS011;21241;51.828;19.574;2023-04-03T10:26:29;2.50;;;2.10;;
35056;SDS011;21241;51.828;19.574;2023-04-03T10:34:42;2.70;;;2.10;;
35056;SDS011;21241;51.828;19.574;2023-04-03T10:37:35;2.10;;;1.80;;
35056;SDS011;21241;51.828;19.574;2023-04-03T10:40:21;2.50;;;2.30;;
35056;SDS011;21241;51.828;19.574;2023-04-03T10:42:55;2.30;;;2.10;;
35056;SDS011;21241;51.828;19.574;2023-04-03T10:45:57;4.50;;;2.40;;
35056;SDS011;21241;51.828;19.574;2023-04-03T10:48:31;2.10;;;1.80;;
35056;SDS011;21241;51.828;19.574;2023-04-03T10:54:12;3.10;;;2.00;;
35056;SDS011;21241;51.828;19.574;2023-04-03T10:56:47;2.20;;;2.00;;
35056;SDS011;21241;51.828;19.574;2023-04-03T10:59:44;2.00;;;1.90;;
35056;SDS011;21241;51.828;19.574;2023-04-03T11:02:31;3.30;;;2.20;;
35056;SDS011;21241;51.828;19.574;2023-04-03T11:05:04;2.10;;;1.90;;
35056;SDS011;21241;51.828;19.574;2023-04-03T11:07:38;2.50;;;2.10;;
35056;SDS011;21241;51.828;19.574;2023-04-03T11:10:13;2.90;;;2.20;;
35056;SDS011;21241;51.828;19.574;2023-04-03T11:12:48;2.10;;;1.80;;
35056;SDS011;21241;51.828;19.574;2023-04-03T11:15:19;3.30;;;1.90;;
35056;SDS011;21241;51.828;19.574;2023-04-03T11:17:51;1.70;;;1.60;;
35056;SDS011;21241;51.828;19.574;2023-04-03T11:20:28;3.40;;;1.70;;
35056;SDS011;21241;51.828;19.574;2023-04-03T11:23:02;2.00;;;1.90;;
35056;SDS011;21241;51.828;19.574;2023-04-03T11:25:32;2.00;;;1.70;;
35056;SDS011;21241;51.828;19.574;2023-04-03T11:28:03;3.10;;;2.40;;
35056;SDS011;21241;51.828;19.574;2023-04-03T11:33:34;2.10;;;1.90;;
35056;SDS011;21241;51.828;19.574;2023-04-03T11:37:00;1.50;;;1.30;;
35056;SDS011;21241;51.828;19.574;2023-04-03T11:42:13;1.90;;;1.70;;
35056;SDS011;21241;51.828;19.574;2023-04-03T11:44:45;1.60;;;1.50;;
35056;SDS011;21241;51.828;19.574;2023-04-03T11:47:43;1.80;;;1.70;;
35056;SDS011;21241;51.828;19.574;2023-04-03T11:58:18;2.40;;;2.00;;
35056;SDS011;21241;51.828;19.574;2023-04-03T12:00:48;2.20;;;1.50;;
35056;SDS011;21241;51.828;19.574;2023-04-03T12:13:41;2.30;;;1.70;;
35056;SDS011;21241;51.828;19.574;2023-04-03T12:21:23;1.60;;;1.50;;
35056;SDS011;21241;51.828;19.574;2023-04-03T12:26:47;2.10;;;1.80;;
35056;SDS011;21241;51.828;19.574;2023-04-03T12:34:49;1.90;;;1.80;;
35056;SDS011;21241;51.828;19.574;2023-04-03T12:37:29;2.30;;;1.60;;
35056;SDS011;21241;51.828;19.574;2023-04-03T12:40:26;3.10;;;2.10;;
35056;SDS011;21241;51.828;19.574;2023-04-03T12:45:44;2.50;;;2.30;;
35056;SDS011;21241;51.828;19.574;2023-04-03T12:48:15;2.00;;;1.60;;
35056;SDS011;21241;51.828;19.574;2023-04-03T12:50:45;1.90;;;1.80;;
35056;SDS011;21241;51.828;19.574;2023-04-03T12:53:32;2.20;;;1.60;;
35056;SDS011;21241;51.828;19.574;2023-04-03T12:56:18;2.10;;;1.90;;
35056;SDS011;21241;51.828;19.574;2023-04-03T12:59:13;2.00;;;1.90;;
35056;SDS011;21241;51.828;19.574;2023-04-03T13:01:53;2.70;;;2.00;;
35056;SDS011;21241;51.828;19.574;2023-04-03T13:04:29;2.00;;;1.80;;
35056;SDS011;21241;51.828;19.574;2023-04-03T13:06:58;2.30;;;2.10;;
35056;SDS011;21241;51.828;19.574;2023-04-03T13:09:27;2.10;;;2.00;;
35056;SDS011;21241;51.828;19.574;2023-04-03T13:11:58;1.90;;;1.80;;
35056;SDS011;21241;51.828;19.574;2023-04-03T13:14:28;2.30;;;2.10;;
35056;SDS011;21241;51.828;19.574;2023-04-03T13:16:59;1.80;;;1.60;;
35056;SDS011;21241;51.828;19.574;2023-04-03T13:19:31;2.00;;;1.80;;
35056;SDS011;21241;51.828;19.574;2023-04-03T13:22:01;2.10;;;1.80;;
35056;SDS011;21241;51.828;19.574;2023-04-03T13:24:32;2.20;;;1.90;;
35056;SDS011;21241;51.828;19.574;2023-04-03T13:27:01;2.10;;;1.90;;
35056;SDS011;21241;51.828;19.574;2023-04-03T13:29:31;2.20;;;2.00;;
35056;SDS011;21241;51.828;19.574;2023-04-03T13:32:01;2.60;;;1.90;;
35056;SDS011;21241;51.828;19.574;2023-04-03T13:34:38;3.10;;;2.10;;
35056;SDS011;21241;51.828;19.574;2023-04-03T13:37:19;2.80;;;2.60;;
35056;SDS011;21241;51.828;19.574;2023-04-03T13:40:04;2.80;;;2.40;;
35056;SDS011;21241;51.828;19.574;2023-04-03T13:42:39;1.90;;;1.70;;
35056;SDS011;21241;51.828;19.574;2023-04-03T13:45:28;2.50;;;2.30;;
35056;SDS011;21241;51.828;19.574;2023-04-03T13:48:11;2.40;;;2.20;;
35056;SDS011;21241;51.828;19.574;2023-04-03T13:50:55;3.00;;;2.40;;
35056;SDS011;21241;51.828;19.574;2023-04-03T13:53:28;3.00;;;2.70;;
35056;SDS011;21241;51.828;19.574;2023-04-03T13:56:05;3.20;;;2.50;;
35056;SDS011;21241;51.828;19.574;2023-04-03T13:58:36;2.60;;;2.40;;
35056;SDS011;21241;51.828;19.574;2023-04-03T14:01:15;2.70;;;2.20;;
35056;SDS011;21241;51.828;19.574;2023-04-03T14:03:56;2.40;;;2.20;;
35056;SDS011;21241;51.828;19.574;2023-04-03T14:06:25;2.30;;;1.80;;
35056;SDS011;21241;51.828;19.574;2023-04-03T14:08:53;1.70;;;1.60;;
35056;SDS011;21241;51.828;19.574;2023-04-03T14:11:26;2.60;;;1.50;;
35056;SDS011;21241;51.828;19.574;2023-04-03T14:13:57;4.00;;;2.50;;
35056;SDS011;21241;51.828;19.574;2023-04-03T14:16:39;2.90;;;2.10;;
35056;SDS011;21241;51.828;19.574;2023-04-03T14:19:20;1.90;;;1.70;;
35056;SDS011;21241;51.828;19.574;2023-04-03T14:21:54;4.30;;;2.60;;
35056;SDS011;21241;51.828;19.574;2023-04-03T14:24:23;2.40;;;2.20;;
35056;SDS011;21241;51.828;19.574;2023-04-03T14:26:51;2.20;;;2.00;;
35056;SDS011;21241;51.828;19.574;2023-04-03T14:29:20;2.70;;;2.40;;
35056;SDS011;21241;51.828;19.574;2023-04-03T14:31:49;3.30;;;2.50;;
35056;SDS011;21241;51.828;19.574;2023-04-03T14:34:27;3.50;;;2.70;;
35056;SDS011;21241;51.828;19.574;2023-04-03T14:36:54;3.10;;;2.70;;
35056;SDS011;21241;51.828;19.574;2023-04-03T14:39:22;2.60;;;2.40;;
35056;SDS011;21241;51.828;19.574;2023-04-03T14:41:50;2.70;;;1.90;;
35056;SDS011;21241;51.828;19.574;2023-04-03T14:44:18;2.50;;;2.00;;
35056;SDS011;21241;51.828;19.574;2023-04-03T14:46:45;2.90;;;2.10;;
35056;SDS011;21241;51.828;19.574;2023-04-03T14:49:25;3.10;;;2.70;;
35056;SDS011;21241;51.828;19.574;2023-04-03T14:51:58;2.60;;;2.40;;
35056;SDS011;21241;51.828;19.574;2023-04-03T14:54:26;4.30;;;3.90;;
35056;SDS011;21241;51.828;19.574;2023-04-03T14:56:57;2.70;;;2.40;;
35056;SDS011;21241;51.828;19.574;2023-04-03T14:59:26;3.20;;;2.90;;
35056;SDS011;21241;51.828;19.574;2023-04-03T15:01:54;3.40;;;3.10;;
35056;SDS011;21241;51.828;19.574;2023-04-03T15:04:22;3.40;;;3.10;;
35056;SDS011;21241;51.828;19.574;2023-04-03T15:06:49;2.70;;;2.50;;
35056;SDS011;21241;51.828;19.574;2023-04-03T15:09:23;2.50;;;2.10;;
35056;SDS011;21241;51.828;19.574;2023-04-03T15:11:53;3.70;;;2.90;;
35056;SDS011;21241;51.828;19.574;2023-04-03T15:14:21;3.50;;;2.80;;
35056;SDS011;21241;51.828;19.574;2023-04-03T15:17:08;2.50;;;2.30;;
35056;SDS011;21241;51.828;19.574;2023-04-03T15:19:42;2.00;;;1.90;;
35056;SDS011;21241;51.828;19.574;2023-04-03T15:22:14;3.60;;;2.70;;
35056;SDS011;21241;51.828;19.574;2023-04-03T15:24:43;3.10;;;2.60;;
35056;SDS011;21241;51.828;19.574;2023-04-03T15:27:11;3.60;;;3.00;;
35056;SDS011;21241;51.828;19.574;2023-04-03T15:29:41;4.00;;;3.10;;
35056;SDS011;21241;51.828;19.574;2023-04-03T15:32:09;2.90;;;2.60;;
35056;SDS011;21241;51.828;19.574;2023-04-03T15:34:38;4.20;;;3.00;;
35056;SDS011;21241;51.828;19.574;2023-04-03T15:37:06;2.80;;;2.50;;
35056;SDS011;21241;51.828;19.574;2023-04-03T15:39:33;3.20;;;3.00;;
35056;SDS011;21241;51.828;19.574;2023-04-03T15:42:01;3.50;;;2.40;;
35056;SDS011;21241;51.828;19.574;2023-04-03T15:44:34;2.60;;;2.40;;
35056;SDS011;21241;51.828;19.574;2023-04-03T15:47:02;3.20;;;2.50;;
35056;SDS011;21241;51.828;19.574;2023-04-03T15:49:30;2.60;;;2.20;;
35056;SDS011;21241;51.828;19.574;2023-04-03T15:52:00;2.40;;;2.10;;
35056;SDS011;21241;51.828;19.574;2023-04-03T15:54:28;2.50;;;2.10;;
35056;SDS011;21241;51.828;19.574;2023-04-03T15:56:57;2.40;;;2.20;;
35056;SDS011;21241;51.828;19.574;2023-04-03T15:59:24;2.60;;;2.40;;
35056;SDS011;21241;51.828;19.574;2023-04-03T16:01:52;3.20;;;2.70;;
35056;SDS011;21241;51.828;19.574;2023-04-03T16:04:20;2.50;;;2.10;;
35056;SDS011;21241;51.828;19.574;2023-04-03T16:06:48;2.70;;;2.50;;
35056;SDS011;21241;51.828;19.574;2023-04-03T16:09:16;3.20;;;2.80;;
35056;SDS011;21241;51.828;19.574;2023-04-03T16:11:44;3.50;;;3.00;;